sensor_id;sensor_type;location;lat;lon;timestamp;temperature;humidity
63013;DHT22;62113;45.624;11.700;2024-01-30T00:01:41;5.20;63.80
63013;DHT22;62113;45.624;11.700;2024-01-30T00:04:07;5.10;63.70
63013;DHT22;62113;45.624;11.700;2024-01-30T00:06:32;5.10;63.60
63013;DHT22;62113;45.624;11.700;2024-01-30T00:08:58;5.10;63.60
63013;DHT22;62113;45.624;11.700;2024-01-30T00:11:24;5.10;63.60
63013;DHT22;62113;45.624;11.700;2024-01-30T00:13:54;5.10;63.60
63013;DHT22;62113;45.624;11.700;2024-01-30T00:16:22;5.00;63.60
63013;DHT22;62113;45.624;11.700;2024-01-30T00:18:52;5.00;63.70
63013;DHT22;62113;45.624;11.700;2024-01-30T00:21:19;5.00;63.70
63013;DHT22;62113;45.624;11.700;2024-01-30T00:23:45;5.00;63.70
63013;DHT22;62113;45.624;11.700;2024-01-30T00:26:10;5.00;63.70
63013;DHT22;62113;45.624;11.700;2024-01-30T00:28:37;5.00;63.70
63013;DHT22;62113;45.624;11.700;2024-01-30T00:31:03;5.00;63.80
63013;DHT22;62113;45.624;11.700;2024-01-30T00:33:29;5.00;63.70
63013;DHT22;62113;45.624;11.700;2024-01-30T00:35:55;5.00;63.80
63013;DHT22;62113;45.624;11.700;2024-01-30T00:38:20;5.00;63.70
63013;DHT22;62113;45.624;11.700;2024-01-30T00:40:46;4.90;63.70
63013;DHT22;62113;45.624;11.700;2024-01-30T00:43:11;4.90;63.60
63013;DHT22;62113;45.624;11.700;2024-01-30T00:45:37;4.90;63.50
63013;DHT22;62113;45.624;11.700;2024-01-30T00:48:03;4.80;63.50
63013;DHT22;62113;45.624;11.700;2024-01-30T00:50:29;4.80;63.60
63013;DHT22;62113;45.624;11.700;2024-01-30T00:52:55;4.80;63.50
63013;DHT22;62113;45.624;11.700;2024-01-30T00:55:20;4.70;63.60
63013;DHT22;62113;45.624;11.700;2024-01-30T00:57:46;4.70;63.60
63013;DHT22;62113;45.624;11.700;2024-01-30T01:00:13;4.70;63.60
63013;DHT22;62113;45.624;11.700;2024-01-30T01:02:41;4.70;63.70
63013;DHT22;62113;45.624;11.700;2024-01-30T01:05:07;4.70;63.80
63013;DHT22;62113;45.624;11.700;2024-01-30T01:07:32;4.70;63.90
63013;DHT22;62113;45.624;11.700;2024-01-30T01:09:58;4.70;63.90
63013;DHT22;62113;45.624;11.700;2024-01-30T01:12:23;4.70;63.90
63013;DHT22;62113;45.624;11.700;2024-01-30T01:14:49;4.70;63.90
63013;DHT22;62113;45.624;11.700;2024-01-30T01:17:15;4.70;63.90
63013;DHT22;62113;45.624;11.700;2024-01-30T01:19:40;4.70;63.80
63013;DHT22;62113;45.624;11.700;2024-01-30T01:22:06;4.60;63.80
63013;DHT22;62113;45.624;11.700;2024-01-30T01:24:31;4.60;63.70
63013;DHT22;62113;45.624;11.700;2024-01-30T01:26:58;4.60;63.70
63013;DHT22;62113;45.624;11.700;2024-01-30T01:29:24;4.60;63.70
63013;DHT22;62113;45.624;11.700;2024-01-30T01:31:59;4.50;63.60
63013;DHT22;62113;45.624;11.700;2024-01-30T01:34:25;4.50;63.50
63013;DHT22;62113;45.624;11.700;2024-01-30T01:36:51;4.50;63.60
63013;DHT22;62113;45.624;11.700;2024-01-30T01:39:17;4.50;63.60
63013;DHT22;62113;45.624;11.700;2024-01-30T01:41:42;4.40;63.50
63013;DHT22;62113;45.624;11.700;2024-01-30T01:44:08;4.40;63.50
63013;DHT22;62113;45.624;11.700;2024-01-30T01:46:34;4.40;63.50
63013;DHT22;62113;45.624;11.700;2024-01-30T01:49:02;4.40;63.50
63013;DHT22;62113;45.624;11.700;2024-01-30T01:51:29;4.40;63.50
63013;DHT22;62113;45.624;11.700;2024-01-30T01:53:57;4.30;63.50
63013;DHT22;62113;45.624;11.700;2024-01-30T01:56:24;4.30;63.40
63013;DHT22;62113;45.624;11.700;2024-01-30T01:58:54;4.30;63.40
63013;DHT22;62113;45.624;11.700;2024-01-30T02:01:21;4.30;63.40
63013;DHT22;62113;45.624;11.700;2024-01-30T02:03:47;4.30;63.40
63013;DHT22;62113;45.624;11.700;2024-01-30T02:06:14;4.30;63.40
63013;DHT22;62113;45.624;11.700;2024-01-30T02:08:40;4.30;63.40
63013;DHT22;62113;45.624;11.700;2024-01-30T02:11:06;4.30;63.30
63013;DHT22;62113;45.624;11.700;2024-01-30T02:13:31;4.30;63.30
63013;DHT22;62113;45.624;11.700;2024-01-30T02:15:57;4.30;63.30
63013;DHT22;62113;45.624;11.700;2024-01-30T02:18:23;4.30;63.30
63013;DHT22;62113;45.624;11.700;2024-01-30T02:20:48;4.30;63.30
63013;DHT22;62113;45.624;11.700;2024-01-30T02:23:15;4.30;63.30
63013;DHT22;62113;45.624;11.700;2024-01-30T02:25:41;4.30;63.30
63013;DHT22;62113;45.624;11.700;2024-01-30T02:28:13;4.30;63.40
63013;DHT22;62113;45.624;11.700;2024-01-30T02:30:39;4.30;63.30
63013;DHT22;62113;45.624;11.700;2024-01-30T02:33:05;4.30;63.30
63013;DHT22;62113;45.624;11.700;2024-01-30T02:35:31;4.20;63.30
63013;DHT22;62113;45.624;11.700;2024-01-30T02:37:57;4.20;63.30
63013;DHT22;62113;45.624;11.700;2024-01-30T02:40:22;4.30;63.30
63013;DHT22;62113;45.624;11.700;2024-01-30T02:42:48;4.30;63.40
63013;DHT22;62113;45.624;11.700;2024-01-30T02:45:14;4.20;63.50
63013;DHT22;62113;45.624;11.700;2024-01-30T02:47:40;4.20;63.50
63013;DHT22;62113;45.624;11.700;2024-01-30T02:50:06;4.20;63.60
63013;DHT22;62113;45.624;11.700;2024-01-30T02:52:32;4.20;63.60
63013;DHT22;62113;45.624;11.700;2024-01-30T02:54:58;4.20;63.60
63013;DHT22;62113;45.624;11.700;2024-01-30T02:57:23;4.20;63.60
63013;DHT22;62113;45.624;11.700;2024-01-30T02:59:49;4.20;63.60
63013;DHT22;62113;45.624;11.700;2024-01-30T03:02:15;4.20;63.50
63013;DHT22;62113;45.624;11.700;2024-01-30T03:04:43;4.20;63.50
63013;DHT22;62113;45.624;11.700;2024-01-30T03:07:09;4.20;63.60
63013;DHT22;62113;45.624;11.700;2024-01-30T03:09:36;4.20;63.60
63013;DHT22;62113;45.624;11.700;2024-01-30T03:12:01;4.20;63.60
63013;DHT22;62113;45.624;11.700;2024-01-30T03:14:27;4.20;63.70
63013;DHT22;62113;45.624;11.700;2024-01-30T03:16:53;4.20;63.70
63013;DHT22;62113;45.624;11.700;2024-01-30T03:19:18;4.20;63.70
63013;DHT22;62113;45.624;11.700;2024-01-30T03:21:44;4.20;63.80
63013;DHT22;62113;45.624;11.700;2024-01-30T03:24:09;4.20;63.70
63013;DHT22;62113;45.624;11.700;2024-01-30T03:26:35;4.20;63.70
63013;DHT22;62113;45.624;11.700;2024-01-30T03:29:01;4.20;63.60
63013;DHT22;62113;45.624;11.700;2024-01-30T03:31:27;4.20;63.70
63013;DHT22;62113;45.624;11.700;2024-01-30T03:33:52;4.10;63.70
63013;DHT22;62113;45.624;11.700;2024-01-30T03:36:18;4.10;63.90
63013;DHT22;62113;45.624;11.700;2024-01-30T03:38:44;4.10;63.90
63013;DHT22;62113;45.624;11.700;2024-01-30T03:41:09;4.10;64.00
63013;DHT22;62113;45.624;11.700;2024-01-30T03:43:35;4.10;64.00
63013;DHT22;62113;45.624;11.700;2024-01-30T03:46:02;4.10;64.00
63013;DHT22;62113;45.624;11.700;2024-01-30T03:48:28;4.20;64.00
63013;DHT22;62113;45.624;11.700;2024-01-30T03:50:54;4.20;63.90
63013;DHT22;62113;45.624;11.700;2024-01-30T03:53:20;4.10;63.70
63013;DHT22;62113;45.624;11.700;2024-01-30T03:55:45;4.10;63.70
63013;DHT22;62113;45.624;11.700;2024-01-30T03:58:11;4.10;63.70
63013;DHT22;62113;45.624;11.700;2024-01-30T04:00:37;4.00;63.80
63013;DHT22;62113;45.624;11.700;2024-01-30T04:03:03;4.00;63.80
63013;DHT22;62113;45.624;11.700;2024-01-30T04:05:29;4.00;63.90
63013;DHT22;62113;45.624;11.700;2024-01-30T04:07:54;4.00;64.00
63013;DHT22;62113;45.624;11.700;2024-01-30T04:10:20;4.00;64.00
63013;DHT22;62113;45.624;11.700;2024-01-30T04:12:45;4.00;64.10
63013;DHT22;62113;45.624;11.700;2024-01-30T04:15:11;4.00;64.10
63013;DHT22;62113;45.624;11.700;2024-01-30T04:17:37;4.00;64.10
63013;DHT22;62113;45.624;11.700;2024-01-30T04:20:02;4.00;64.00
63013;DHT22;62113;45.624;11.700;2024-01-30T04:22:28;4.00;64.00
63013;DHT22;62113;45.624;11.700;2024-01-30T04:24:54;4.00;63.90
63013;DHT22;62113;45.624;11.700;2024-01-30T04:27:19;4.00;63.90
63013;DHT22;62113;45.624;11.700;2024-01-30T04:29:45;4.00;64.00
63013;DHT22;62113;45.624;11.700;2024-01-30T04:32:10;4.00;63.90
63013;DHT22;62113;45.624;11.700;2024-01-30T04:34:36;4.00;64.00
63013;DHT22;62113;45.624;11.700;2024-01-30T04:37:02;4.00;64.00
63013;DHT22;62113;45.624;11.700;2024-01-30T04:39:28;4.00;63.90
63013;DHT22;62113;45.624;11.700;2024-01-30T04:41:54;4.00;63.80
63013;DHT22;62113;45.624;11.700;2024-01-30T04:44:19;3.90;63.70
63013;DHT22;62113;45.624;11.700;2024-01-30T04:46:45;3.90;63.70
63013;DHT22;62113;45.624;11.700;2024-01-30T04:49:11;3.90;63.90
63013;DHT22;62113;45.624;11.700;2024-01-30T04:51:36;3.80;63.90
63013;DHT22;62113;45.624;11.700;2024-01-30T04:54:02;3.80;64.00
63013;DHT22;62113;45.624;11.700;2024-01-30T04:56:27;3.80;64.00
63013;DHT22;62113;45.624;11.700;2024-01-30T04:58:53;3.80;64.00
63013;DHT22;62113;45.624;11.700;2024-01-30T05:01:19;3.80;64.00
63013;DHT22;62113;45.624;11.700;2024-01-30T05:03:44;3.80;64.10
63013;DHT22;62113;45.624;11.700;2024-01-30T05:06:10;3.80;64.10
63013;DHT22;62113;45.624;11.700;2024-01-30T05:08:36;3.80;64.10
63013;DHT22;62113;45.624;11.700;2024-01-30T05:11:05;3.80;64.10
63013;DHT22;62113;45.624;11.700;2024-01-30T05:13:31;3.80;64.10
63013;DHT22;62113;45.624;11.700;2024-01-30T05:15:57;3.80;64.20
63013;DHT22;62113;45.624;11.700;2024-01-30T05:18:23;3.80;64.10
63013;DHT22;62113;45.624;11.700;2024-01-30T05:20:50;3.80;64.10
63013;DHT22;62113;45.624;11.700;2024-01-30T05:23:16;3.80;64.10
63013;DHT22;62113;45.624;11.700;2024-01-30T05:25:41;3.70;64.10
63013;DHT22;62113;45.624;11.700;2024-01-30T05:28:07;3.80;64.20
63013;DHT22;62113;45.624;11.700;2024-01-30T05:30:33;3.70;64.20
63013;DHT22;62113;45.624;11.700;2024-01-30T05:32:58;3.80;64.20
63013;DHT22;62113;45.624;11.700;2024-01-30T05:35:24;3.80;64.20
63013;DHT22;62113;45.624;11.700;2024-01-30T05:37:49;3.80;64.10
63013;DHT22;62113;45.624;11.700;2024-01-30T05:40:15;3.80;64.20
63013;DHT22;62113;45.624;11.700;2024-01-30T05:42:41;3.70;64.10
63013;DHT22;62113;45.624;11.700;2024-01-30T05:45:07;3.70;64.20
63013;DHT22;62113;45.624;11.700;2024-01-30T05:47:34;3.70;64.20
63013;DHT22;62113;45.624;11.700;2024-01-30T05:49:59;3.70;64.10
63013;DHT22;62113;45.624;11.700;2024-01-30T05:52:25;3.70;64.10
63013;DHT22;62113;45.624;11.700;2024-01-30T05:54:51;3.70;64.10
63013;DHT22;62113;45.624;11.700;2024-01-30T05:57:17;3.70;64.00
63013;DHT22;62113;45.624;11.700;2024-01-30T05:59:43;3.70;64.00
63013;DHT22;62113;45.624;11.700;2024-01-30T06:02:10;3.70;64.10
63013;DHT22;62113;45.624;11.700;2024-01-30T06:04:36;3.70;64.10
63013;DHT22;62113;45.624;11.700;2024-01-30T06:07:02;3.70;64.10
63013;DHT22;62113;45.624;11.700;2024-01-30T06:09:28;3.70;64.20
63013;DHT22;62113;45.624;11.700;2024-01-30T06:11:54;3.70;64.30
63013;DHT22;62113;45.624;11.700;2024-01-30T06:14:20;3.70;64.20
63013;DHT22;62113;45.624;11.700;2024-01-30T06:16:46;3.80;64.00
63013;DHT22;62113;45.624;11.700;2024-01-30T06:19:11;3.80;63.90
63013;DHT22;62113;45.624;11.700;2024-01-30T06:21:37;3.80;63.90
63013;DHT22;62113;45.624;11.700;2024-01-30T06:24:04;3.80;63.90
63013;DHT22;62113;45.624;11.700;2024-01-30T06:26:29;3.80;63.80
63013;DHT22;62113;45.624;11.700;2024-01-30T06:28:55;3.90;63.80
63013;DHT22;62113;45.624;11.700;2024-01-30T06:31:21;3.90;63.80
63013;DHT22;62113;45.624;11.700;2024-01-30T06:33:50;3.90;63.70
63013;DHT22;62113;45.624;11.700;2024-01-30T06:36:16;3.90;63.60
63013;DHT22;62113;45.624;11.700;2024-01-30T06:38:41;4.00;63.60
63013;DHT22;62113;45.624;11.700;2024-01-30T06:41:07;4.00;63.50
63013;DHT22;62113;45.624;11.700;2024-01-30T06:43:33;4.00;63.40
63013;DHT22;62113;45.624;11.700;2024-01-30T06:45:58;4.00;63.40
63013;DHT22;62113;45.624;11.700;2024-01-30T06:48:25;4.00;63.40
63013;DHT22;62113;45.624;11.700;2024-01-30T06:50:53;4.00;63.40
63013;DHT22;62113;45.624;11.700;2024-01-30T06:53:19;4.00;63.30
63013;DHT22;62113;45.624;11.700;2024-01-30T06:55:44;4.10;63.10
63013;DHT22;62113;45.624;11.700;2024-01-30T06:58:10;4.10;63.00
63013;DHT22;62113;45.624;11.700;2024-01-30T07:00:36;4.10;62.90
63013;DHT22;62113;45.624;11.700;2024-01-30T07:03:01;4.10;62.90
63013;DHT22;62113;45.624;11.700;2024-01-30T07:05:27;4.10;62.90
63013;DHT22;62113;45.624;11.700;2024-01-30T07:07:53;4.10;62.90
63013;DHT22;62113;45.624;11.700;2024-01-30T07:10:18;4.10;62.70
63013;DHT22;62113;45.624;11.700;2024-01-30T07:12:44;4.10;62.60
63013;DHT22;62113;45.624;11.700;2024-01-30T07:15:10;4.20;62.40
63013;DHT22;62113;45.624;11.700;2024-01-30T07:17:36;4.20;62.20
63013;DHT22;62113;45.624;11.700;2024-01-30T07:20:01;4.20;62.20
63013;DHT22;62113;45.624;11.700;2024-01-30T07:22:30;4.20;62.20
63013;DHT22;62113;45.624;11.700;2024-01-30T07:24:56;4.20;62.20
63013;DHT22;62113;45.624;11.700;2024-01-30T07:27:22;4.20;62.20
63013;DHT22;62113;45.624;11.700;2024-01-30T07:29:48;4.20;62.20
63013;DHT22;62113;45.624;11.700;2024-01-30T07:32:13;4.30;62.10
63013;DHT22;62113;45.624;11.700;2024-01-30T07:34:39;4.30;62.10
63013;DHT22;62113;45.624;11.700;2024-01-30T07:37:04;4.40;62.00
63013;DHT22;62113;45.624;11.700;2024-01-30T07:39:30;4.40;62.00
63013;DHT22;62113;45.624;11.700;2024-01-30T07:41:55;4.30;61.50
63013;DHT22;62113;45.624;11.700;2024-01-30T07:44:22;4.30;61.70
63013;DHT22;62113;45.624;11.700;2024-01-30T07:46:47;4.40;62.10
63013;DHT22;62113;45.624;11.700;2024-01-30T07:49:13;4.60;62.60
63013;DHT22;62113;45.624;11.700;2024-01-30T07:51:39;4.70;61.80
63013;DHT22;62113;45.624;11.700;2024-01-30T07:54:14;4.90;62.40
63013;DHT22;62113;45.624;11.700;2024-01-30T07:56:40;5.20;62.30
63013;DHT22;62113;45.624;11.700;2024-01-30T07:59:09;5.40;61.60
63013;DHT22;62113;45.624;11.700;2024-01-30T08:01:34;5.70;61.10
63013;DHT22;62113;45.624;11.700;2024-01-30T08:04:00;5.80;61.10
63013;DHT22;62113;45.624;11.700;2024-01-30T08:06:25;6.10;60.80
63013;DHT22;62113;45.624;11.700;2024-01-30T08:08:51;6.30;60.90
63013;DHT22;62113;45.624;11.700;2024-01-30T08:11:20;6.50;60.60
63013;DHT22;62113;45.624;11.700;2024-01-30T08:13:45;6.60;59.20
63013;DHT22;62113;45.624;11.700;2024-01-30T08:16:11;6.70;58.90
63013;DHT22;62113;45.624;11.700;2024-01-30T08:18:37;6.80;58.80
63013;DHT22;62113;45.624;11.700;2024-01-30T08:21:03;7.00;58.70
63013;DHT22;62113;45.624;11.700;2024-01-30T08:23:28;7.20;59.10
63013;DHT22;62113;45.624;11.700;2024-01-30T08:25:54;7.30;58.40
63013;DHT22;62113;45.624;11.700;2024-01-30T08:28:19;7.50;58.30
63013;DHT22;62113;45.624;11.700;2024-01-30T08:30:45;7.70;58.30
63013;DHT22;62113;45.624;11.700;2024-01-30T08:33:10;7.70;58.30
63013;DHT22;62113;45.624;11.700;2024-01-30T08:35:36;7.80;57.20
63013;DHT22;62113;45.624;11.700;2024-01-30T08:38:02;7.90;57.60
63013;DHT22;62113;45.624;11.700;2024-01-30T08:40:29;8.00;56.40
63013;DHT22;62113;45.624;11.700;2024-01-30T08:42:55;8.10;57.10
63013;DHT22;62113;45.624;11.700;2024-01-30T08:45:20;8.10;57.10
63013;DHT22;62113;45.624;11.700;2024-01-30T08:47:46;8.20;56.30
63013;DHT22;62113;45.624;11.700;2024-01-30T08:50:11;8.20;56.80
63013;DHT22;62113;45.624;11.700;2024-01-30T08:52:37;8.20;56.80
63013;DHT22;62113;45.624;11.700;2024-01-30T08:55:03;8.30;56.70
63013;DHT22;62113;45.624;11.700;2024-01-30T08:57:30;8.30;57.60
63013;DHT22;62113;45.624;11.700;2024-01-30T08:59:56;8.30;57.50
63013;DHT22;62113;45.624;11.700;2024-01-30T09:02:21;8.50;57.80
63013;DHT22;62113;45.624;11.700;2024-01-30T09:04:47;8.60;58.20
63013;DHT22;62113;45.624;11.700;2024-01-30T09:07:13;8.70;57.40
63013;DHT22;62113;45.624;11.700;2024-01-30T09:09:39;8.80;57.60
63013;DHT22;62113;45.624;11.700;2024-01-30T09:12:08;8.90;57.00
63013;DHT22;62113;45.624;11.700;2024-01-30T09:14:37;9.00;57.70
63013;DHT22;62113;45.624;11.700;2024-01-30T09:17:04;9.20;57.20
63013;DHT22;62113;45.624;11.700;2024-01-30T09:19:30;9.20;55.60
63013;DHT22;62113;45.624;11.700;2024-01-30T09:21:56;9.30;55.80
63013;DHT22;62113;45.624;11.700;2024-01-30T09:24:21;9.40;55.40
63013;DHT22;62113;45.624;11.700;2024-01-30T09:26:47;9.60;56.50
63013;DHT22;62113;45.624;11.700;2024-01-30T09:29:13;9.80;57.70
63013;DHT22;62113;45.624;11.700;2024-01-30T09:31:38;10.00;55.00
63013;DHT22;62113;45.624;11.700;2024-01-30T09:34:04;10.20;54.30
63013;DHT22;62113;45.624;11.700;2024-01-30T09:36:29;10.30;54.20
63013;DHT22;62113;45.624;11.700;2024-01-30T09:38:55;10.70;53.70
63013;DHT22;62113;45.624;11.700;2024-01-30T09:41:23;11.10;52.50
63013;DHT22;62113;45.624;11.700;2024-01-30T09:43:50;11.70;52.30
63013;DHT22;62113;45.624;11.700;2024-01-30T09:46:17;12.20;51.10
63013;DHT22;62113;45.624;11.700;2024-01-30T09:48:49;12.70;53.80
63013;DHT22;62113;45.624;11.700;2024-01-30T09:51:15;13.10;52.60
63013;DHT22;62113;45.624;11.700;2024-01-30T09:53:42;13.40;51.00
63013;DHT22;62113;45.624;11.700;2024-01-30T09:56:09;13.60;47.40
63013;DHT22;62113;45.624;11.700;2024-01-30T09:58:35;13.70;50.00
63013;DHT22;62113;45.624;11.700;2024-01-30T10:01:00;13.70;48.10
63013;DHT22;62113;45.624;11.700;2024-01-30T10:03:26;13.70;48.10
63013;DHT22;62113;45.624;11.700;2024-01-30T10:05:52;13.70;49.20
63013;DHT22;62113;45.624;11.700;2024-01-30T10:08:18;13.70;48.50
63013;DHT22;62113;45.624;11.700;2024-01-30T10:10:48;13.70;49.40
63013;DHT22;62113;45.624;11.700;2024-01-30T10:13:15;13.60;47.10
63013;DHT22;62113;45.624;11.700;2024-01-30T10:15:41;13.60;48.30
63013;DHT22;62113;45.624;11.700;2024-01-30T10:18:08;13.60;49.40
63013;DHT22;62113;45.624;11.700;2024-01-30T10:20:35;13.60;49.00
63013;DHT22;62113;45.624;11.700;2024-01-30T10:23:01;13.60;48.50
63013;DHT22;62113;45.624;11.700;2024-01-30T10:25:27;13.50;48.80
63013;DHT22;62113;45.624;11.700;2024-01-30T10:27:53;13.50;49.10
63013;DHT22;62113;45.624;11.700;2024-01-30T10:30:22;13.50;49.10
63013;DHT22;62113;45.624;11.700;2024-01-30T10:32:48;13.40;49.60
63013;DHT22;62113;45.624;11.700;2024-01-30T10:35:15;13.50;49.90
63013;DHT22;62113;45.624;11.700;2024-01-30T10:37:43;13.40;49.70
63013;DHT22;62113;45.624;11.700;2024-01-30T10:40:12;13.50;49.60
63013;DHT22;62113;45.624;11.700;2024-01-30T10:42:42;13.50;49.20
63013;DHT22;62113;45.624;11.700;2024-01-30T10:45:10;13.50;47.50
63013;DHT22;62113;45.624;11.700;2024-01-30T10:47:58;13.50;49.20
63013;DHT22;62113;45.624;11.700;2024-01-30T10:50:25;13.40;49.40
63013;DHT22;62113;45.624;11.700;2024-01-30T10:52:52;13.40;49.30
63013;DHT22;62113;45.624;11.700;2024-01-30T10:55:18;13.30;48.40
63013;DHT22;62113;45.624;11.700;2024-01-30T10:57:44;13.30;48.00
63013;DHT22;62113;45.624;11.700;2024-01-30T11:00:12;13.20;49.20
63013;DHT22;62113;45.624;11.700;2024-01-30T11:02:43;13.30;49.50
63013;DHT22;62113;45.624;11.700;2024-01-30T11:05:09;13.30;50.40
63013;DHT22;62113;45.624;11.700;2024-01-30T11:07:35;13.40;50.20
63013;DHT22;62113;45.624;11.700;2024-01-30T11:10:04;13.40;50.50
63013;DHT22;62113;45.624;11.700;2024-01-30T11:12:31;13.50;50.00
63013;DHT22;62113;45.624;11.700;2024-01-30T11:15:12;13.40;50.20
63013;DHT22;62113;45.624;11.700;2024-01-30T11:20:26;13.50;49.80
63013;DHT22;62113;45.624;11.700;2024-01-30T11:22:52;13.50;50.00
63013;DHT22;62113;45.624;11.700;2024-01-30T11:25:20;13.50;50.10
63013;DHT22;62113;45.624;11.700;2024-01-30T11:27:47;13.50;50.10
63013;DHT22;62113;45.624;11.700;2024-01-30T11:30:25;13.60;50.20
63013;DHT22;62113;45.624;11.700;2024-01-30T11:33:06;13.60;50.10
63013;DHT22;62113;45.624;11.700;2024-01-30T11:35:35;13.60;50.20
63013;DHT22;62113;45.624;11.700;2024-01-30T11:38:02;13.70;50.40
63013;DHT22;62113;45.624;11.700;2024-01-30T11:40:31;13.70;50.00
63013;DHT22;62113;45.624;11.700;2024-01-30T11:42:59;13.70;49.80
63013;DHT22;62113;45.624;11.700;2024-01-30T11:45:26;13.70;49.90
63013;DHT22;62113;45.624;11.700;2024-01-30T11:47:51;13.70;50.20
63013;DHT22;62113;45.624;11.700;2024-01-30T11:50:17;13.80;49.90
63013;DHT22;62113;45.624;11.700;2024-01-30T11:52:43;13.90;50.20
63013;DHT22;62113;45.624;11.700;2024-01-30T11:55:10;13.90;50.00
63013;DHT22;62113;45.624;11.700;2024-01-30T11:57:36;14.00;50.10
63013;DHT22;62113;45.624;11.700;2024-01-30T12:00:05;14.00;50.20
63013;DHT22;62113;45.624;11.700;2024-01-30T12:02:39;14.00;50.40
63013;DHT22;62113;45.624;11.700;2024-01-30T12:05:08;14.20;50.50
63013;DHT22;62113;45.624;11.700;2024-01-30T12:07:35;14.10;49.60
63013;DHT22;62113;45.624;11.700;2024-01-30T12:10:00;14.10;49.10
63013;DHT22;62113;45.624;11.700;2024-01-30T12:12:27;14.00;49.20
63013;DHT22;62113;45.624;11.700;2024-01-30T12:14:53;13.90;49.90
63013;DHT22;62113;45.624;11.700;2024-01-30T12:17:29;13.80;50.10
63013;DHT22;62113;45.624;11.700;2024-01-30T12:22:38;13.90;50.70
63013;DHT22;62113;45.624;11.700;2024-01-30T12:25:07;13.90;50.60
63013;DHT22;62113;45.624;11.700;2024-01-30T12:27:33;13.80;50.60
63013;DHT22;62113;45.624;11.700;2024-01-30T12:29:59;13.80;50.00
63013;DHT22;62113;45.624;11.700;2024-01-30T12:32:25;13.70;50.40
63013;DHT22;62113;45.624;11.700;2024-01-30T12:34:54;13.70;50.00
63013;DHT22;62113;45.624;11.700;2024-01-30T12:37:20;13.70;50.10
63013;DHT22;62113;45.624;11.700;2024-01-30T12:39:48;13.70;49.60
63013;DHT22;62113;45.624;11.700;2024-01-30T12:42:14;13.70;49.40
63013;DHT22;62113;45.624;11.700;2024-01-30T12:44:40;13.70;49.30
63013;DHT22;62113;45.624;11.700;2024-01-30T12:47:06;13.70;48.30
63013;DHT22;62113;45.624;11.700;2024-01-30T12:49:33;13.70;48.10
63013;DHT22;62113;45.624;11.700;2024-01-30T12:51:59;13.70;48.50
63013;DHT22;62113;45.624;11.700;2024-01-30T12:54:25;13.70;48.10
63013;DHT22;62113;45.624;11.700;2024-01-30T12:56:50;13.80;48.00
63013;DHT22;62113;45.624;11.700;2024-01-30T12:59:16;13.80;47.70
63013;DHT22;62113;45.624;11.700;2024-01-30T13:01:41;13.90;47.40
63013;DHT22;62113;45.624;11.700;2024-01-30T13:04:07;13.80;47.20
63013;DHT22;62113;45.624;11.700;2024-01-30T13:06:33;13.80;47.70
63013;DHT22;62113;45.624;11.700;2024-01-30T13:08:58;13.80;48.00
63013;DHT22;62113;45.624;11.700;2024-01-30T13:11:24;13.80;47.80
63013;DHT22;62113;45.624;11.700;2024-01-30T13:13:51;13.70;47.50
63013;DHT22;62113;45.624;11.700;2024-01-30T13:16:17;13.70;48.20
63013;DHT22;62113;45.624;11.700;2024-01-30T13:18:43;13.60;48.80
63013;DHT22;62113;45.624;11.700;2024-01-30T13:21:09;13.70;47.90
63013;DHT22;62113;45.624;11.700;2024-01-30T13:23:35;13.70;47.60
63013;DHT22;62113;45.624;11.700;2024-01-30T13:26:00;13.60;47.00
63013;DHT22;62113;45.624;11.700;2024-01-30T13:28:26;13.70;48.00
63013;DHT22;62113;45.624;11.700;2024-01-30T13:30:52;13.60;48.60
63013;DHT22;62113;45.624;11.700;2024-01-30T13:33:17;13.60;48.10
63013;DHT22;62113;45.624;11.700;2024-01-30T13:35:43;13.50;47.90
63013;DHT22;62113;45.624;11.700;2024-01-30T13:38:09;13.40;47.60
63013;DHT22;62113;45.624;11.700;2024-01-30T13:40:35;13.40;47.30
63013;DHT22;62113;45.624;11.700;2024-01-30T13:43:01;13.30;47.10
63013;DHT22;62113;45.624;11.700;2024-01-30T13:45:27;13.30;47.80
63013;DHT22;62113;45.624;11.700;2024-01-30T13:47:53;13.30;48.20
63013;DHT22;62113;45.624;11.700;2024-01-30T13:50:18;13.30;48.50
63013;DHT22;62113;45.624;11.700;2024-01-30T13:52:44;13.30;49.10
63013;DHT22;62113;45.624;11.700;2024-01-30T13:55:10;13.30;49.20
63013;DHT22;62113;45.624;11.700;2024-01-30T13:57:36;13.30;49.50
63013;DHT22;62113;45.624;11.700;2024-01-30T14:00:05;13.30;49.90
63013;DHT22;62113;45.624;11.700;2024-01-30T14:02:34;13.30;50.30
63013;DHT22;62113;45.624;11.700;2024-01-30T14:04:59;13.20;50.50
63013;DHT22;62113;45.624;11.700;2024-01-30T14:07:25;13.20;50.70
63013;DHT22;62113;45.624;11.700;2024-01-30T14:09:51;13.20;50.90
63013;DHT22;62113;45.624;11.700;2024-01-30T14:12:16;13.20;51.10
63013;DHT22;62113;45.624;11.700;2024-01-30T14:14:42;13.20;51.60
63013;DHT22;62113;45.624;11.700;2024-01-30T14:17:08;13.20;51.40
63013;DHT22;62113;45.624;11.700;2024-01-30T14:19:35;13.20;51.80
63013;DHT22;62113;45.624;11.700;2024-01-30T14:22:01;13.20;51.80
63013;DHT22;62113;45.624;11.700;2024-01-30T14:24:26;13.20;51.90
63013;DHT22;62113;45.624;11.700;2024-01-30T14:26:52;13.20;52.10
63013;DHT22;62113;45.624;11.700;2024-01-30T14:29:18;13.20;52.20
63013;DHT22;62113;45.624;11.700;2024-01-30T14:31:43;13.30;52.20
63013;DHT22;62113;45.624;11.700;2024-01-30T14:34:09;13.30;52.20
63013;DHT22;62113;45.624;11.700;2024-01-30T14:36:37;13.30;52.30
63013;DHT22;62113;45.624;11.700;2024-01-30T14:39:02;13.30;52.40
63013;DHT22;62113;45.624;11.700;2024-01-30T14:41:29;13.30;52.70
63013;DHT22;62113;45.624;11.700;2024-01-30T14:43:55;13.20;52.60
63013;DHT22;62113;45.624;11.700;2024-01-30T14:46:21;13.20;53.10
63013;DHT22;62113;45.624;11.700;2024-01-30T14:48:47;13.20;53.10
63013;DHT22;62113;45.624;11.700;2024-01-30T14:51:12;13.20;53.10
63013;DHT22;62113;45.624;11.700;2024-01-30T14:53:39;13.10;53.30
63013;DHT22;62113;45.624;11.700;2024-01-30T14:56:05;13.00;53.30
63013;DHT22;62113;45.624;11.700;2024-01-30T14:58:31;12.90;53.40
63013;DHT22;62113;45.624;11.700;2024-01-30T15:00:57;12.90;53.50
63013;DHT22;62113;45.624;11.700;2024-01-30T15:03:22;12.80;53.70
63013;DHT22;62113;45.624;11.700;2024-01-30T15:05:48;12.70;53.80
63013;DHT22;62113;45.624;11.700;2024-01-30T15:08:14;12.70;54.00
63013;DHT22;62113;45.624;11.700;2024-01-30T15:10:39;12.70;54.00
63013;DHT22;62113;45.624;11.700;2024-01-30T15:13:05;12.70;54.20
63013;DHT22;62113;45.624;11.700;2024-01-30T15:15:30;12.70;54.20
63013;DHT22;62113;45.624;11.700;2024-01-30T15:17:56;12.60;54.50
63013;DHT22;62113;45.624;11.700;2024-01-30T15:20:23;12.60;54.50
63013;DHT22;62113;45.624;11.700;2024-01-30T15:22:49;12.50;54.80
63013;DHT22;62113;45.624;11.700;2024-01-30T15:25:14;12.40;54.50